Time;durP1;ratioP1;P1;durP2;ratioP2;P2;SDS_P1;SDS_P2;PMS_P1;PMS_P2;Temp;Humidity;BMP_temperature;BMP_pressure;BME280_temperature;BME280_humidity;BME280_pressure;Samples;Min_cycle;Max_cycle;Signal;HPM_P1;HPM_P2
2023/03/23 00:01:12;;;;;;;1.58;1.48;;;;;;;;;;5065385;28;20322;-51
2023/03/23 00:03:39;;;;;;;1.55;1.45;;;;;;;;;;5066508;28;20231;-51
2023/03/23 00:06:07;;;;;;;3.78;2.50;;;;;;;;;;5067276;28;20227;-52
2023/03/23 00:08:37;;;;;;;6.13;2.40;;;;;;;;;;5063506;28;20227;-51
2023/03/23 00:11:03;;;;;;;1.85;1.60;;;;;;;;;;5066723;28;20227;-51
2023/03/23 00:13:30;;;;;;;2.55;1.80;;;;;;;;;;5065831;28;20239;-51
2023/03/23 00:15:57;;;;;;;2.30;2.10;;;;;;;;;;5061775;28;20233;-51
2023/03/23 00:18:24;;;;;;;3.83;2.40;;;;;;;;;;5064618;28;20234;-52
2023/03/23 00:20:51;;;;;;;2.47;2.28;;;;;;;;;;5060098;28;20231;-51
2023/03/23 00:23:20;;;;;;;2.08;1.80;;;;;;;;;;5064356;28;20324;-52
2023/03/23 00:25:48;;;;;;;2.03;1.83;;;;;;;;;;5063111;28;20597;-51
2023/03/23 00:28:14;;;;;;;1.80;1.70;;;;;;;;;;5060810;28;20288;-51
2023/03/23 00:30:41;;;;;;;2.58;1.77;;;;;;;;;;5060215;28;20255;-54
2023/03/23 00:33:08;;;;;;;4.10;2.00;;;;;;;;;;5060375;28;20235;-52
2023/03/23 00:35:35;;;;;;;3.88;2.60;;;;;;;;;;5059755;28;20235;-51
2023/03/23 00:38:02;;;;;;;2.13;2.03;;;;;;;;;;5060018;28;20231;-52
2023/03/23 00:40:30;;;;;;;3.42;2.10;;;;;;;;;;5062005;28;20238;-58
2023/03/23 00:42:57;;;;;;;2.75;2.47;;;;;;;;;;5061122;28;20744;-51
2023/03/23 00:45:23;;;;;;;2.80;1.90;;;;;;;;;;5061730;28;20229;-51
2023/03/23 00:47:50;;;;;;;3.03;1.95;;;;;;;;;;5061362;28;20908;-52
2023/03/23 00:50:18;;;;;;;2.17;1.83;;;;;;;;;;5061591;28;20318;-52
2023/03/23 00:52:45;;;;;;;2.70;2.10;;;;;;;;;;5055556;28;20305;-51
2023/03/23 00:55:11;;;;;;;2.00;1.70;;;;;;;;;;5062013;28;20234;-52
2023/03/23 00:57:40;;;;;;;2.55;1.67;;;;;;;;;;5062525;28;20317;-52
2023/03/23 01:00:10;;;;;;;3.17;1.63;;;;;;;;;;5055153;28;20231;-52
2023/03/23 01:02:40;;;;;;;2.22;2.10;;;;;;;;;;5054001;28;20234;-53
2023/03/23 01:05:07;;;;;;;3.05;2.10;;;;;;;;;;5058461;28;20231;-50
2023/03/23 01:07:34;;;;;;;2.33;2.13;;;;;;;;;;5063906;28;20567;-50
2023/03/23 01:10:01;;;;;;;5.57;2.03;;;;;;;;;;5058803;28;20239;-53
2023/03/23 01:12:28;;;;;;;2.92;1.70;;;;;;;;;;5063710;28;20239;-52
2023/03/23 01:14:56;;;;;;;3.67;2.00;;;;;;;;;;5062085;28;20293;-52
2023/03/23 01:17:22;;;;;;;1.70;1.60;;;;;;;;;;5062915;28;20231;-52
2023/03/23 01:19:49;;;;;;;2.20;2.00;;;;;;;;;;5063263;28;20246;-51
2023/03/23 01:22:16;;;;;;;2.10;2.00;;;;;;;;;;5053859;28;20228;-51
2023/03/23 01:24:42;;;;;;;2.13;2.00;;;;;;;;;;5059959;28;20235;-52
2023/03/23 01:27:09;;;;;;;2.53;1.80;;;;;;;;;;5063066;28;20235;-51
2023/03/23 01:29:36;;;;;;;2.53;2.27;;;;;;;;;;5061074;28;20231;-53
2023/03/23 01:32:04;;;;;;;2.17;1.90;;;;;;;;;;5062154;28;20266;-51
2023/03/23 01:34:31;;;;;;;3.20;2.10;;;;;;;;;;5058065;28;26478;-51
2023/03/23 01:36:57;;;;;;;2.20;1.73;;;;;;;;;;5062540;28;20318;-53
2023/03/23 01:39:24;;;;;;;1.73;1.63;;;;;;;;;;5062734;28;20302;-51
2023/03/23 01:41:51;;;;;;;2.63;2.25;;;;;;;;;;5063801;28;20608;-51
2023/03/23 01:44:35;;;;;;;3.80;2.38;;;;;;;;;;5058502;28;20653;-52
2023/03/23 01:47:04;;;;;;;1.73;1.63;;;;;;;;;;5057191;28;20774;-51
2023/03/23 01:49:32;;;;;;;2.60;2.40;;;;;;;;;;5059025;28;20655;-51
2023/03/23 01:52:00;;;;;;;2.50;2.30;;;;;;;;;;5053790;28;20227;-52
2023/03/23 01:54:27;;;;;;;2.50;2.30;;;;;;;;;;5058845;28;20231;-50
2023/03/23 01:56:56;;;;;;;3.80;2.07;;;;;;;;;;5054915;28;20277;-51
2023/03/23 01:59:23;;;;;;;2.27;2.07;;;;;;;;;;5058833;28;20231;-52
2023/03/23 02:01:52;;;;;;;2.30;2.10;;;;;;;;;;5058656;28;20532;-51
2023/03/23 02:04:21;;;;;;;3.13;2.20;;;;;;;;;;5062344;28;20232;-52
2023/03/23 02:06:48;;;;;;;4.23;1.87;;;;;;;;;;5062592;28;20231;-52
2023/03/23 02:09:16;;;;;;;4.13;2.83;;;;;;;;;;5062172;28;20245;-52
2023/03/23 02:11:43;;;;;;;2.47;2.20;;;;;;;;;;5058340;28;20311;-52
2023/03/23 02:14:10;;;;;;;2.73;2.03;;;;;;;;;;5063247;28;20668;-51
2023/03/23 02:16:42;;;;;;;2.27;2.10;;;;;;;;;;5058535;28;20642;-52
2023/03/23 02:19:24;;;;;;;2.30;2.10;;;;;;;;;;5061195;28;20227;-51
2023/03/23 02:22:07;;;;;;;2.50;2.10;;;;;;;;;;5059827;28;20239;-52
2023/03/23 02:24:43;;;;;;;3.20;2.50;;;;;;;;;;5064081;28;20338;-52
2023/03/23 02:27:12;;;;;;;5.10;2.20;;;;;;;;;;5064167;28;20238;-52
2023/03/23 02:29:57;;;;;;;3.33;2.67;;;;;;;;;;5059795;28;20761;-50
2023/03/23 02:32:40;;;;;;;2.10;1.90;;;;;;;;;;5031317;28;20249;-50
2023/03/23 02:35:09;;;;;;;5.10;2.77;;;;;;;;;;5056354;28;20231;-51
2023/03/23 02:37:39;;;;;;;2.53;1.97;;;;;;;;;;5060769;28;20326;-52
2023/03/23 02:40:09;;;;;;;5.73;2.07;;;;;;;;;;5062041;28;20735;-52
2023/03/23 02:42:37;;;;;;;2.40;1.87;;;;;;;;;;5062018;28;20301;-52
2023/03/23 02:45:05;;;;;;;3.83;2.27;;;;;;;;;;5065611;28;20238;-52
2023/03/23 02:47:32;;;;;;;2.37;2.03;;;;;;;;;;5062281;28;20349;-52
2023/03/23 02:50:00;;;;;;;2.07;1.83;;;;;;;;;;5060076;28;20981;-52
2023/03/23 02:52:30;;;;;;;2.03;1.83;;;;;;;;;;5060542;28;20231;-52
2023/03/23 02:54:58;;;;;;;2.57;2.37;;;;;;;;;;5060633;28;20239;-52
2023/03/23 02:57:25;;;;;;;2.70;1.80;;;;;;;;;;5062032;28;20955;-52
2023/03/23 02:59:52;;;;;;;2.37;2.13;;;;;;;;;;5061732;28;20713;-52
2023/03/23 03:02:19;;;;;;;2.97;2.30;;;;;;;;;;5055145;28;20232;-50
2023/03/23 03:04:49;;;;;;;2.30;2.10;;;;;;;;;;5061676;28;20231;-51
2023/03/23 03:07:37;;;;;;;4.10;2.30;;;;;;;;;;5062349;28;20289;-52
2023/03/23 03:10:07;;;;;;;2.17;1.97;;;;;;;;;;5055797;28;20242;-52
2023/03/23 03:12:38;;;;;;;2.30;1.83;;;;;;;;;;5063020;28;20297;-52
2023/03/23 03:15:09;;;;;;;3.97;2.23;;;;;;;;;;5064967;28;20270;-51
2023/03/23 03:17:39;;;;;;;2.53;2.03;;;;;;;;;;5065937;28;20636;-52
2023/03/23 03:20:09;;;;;;;2.07;1.87;;;;;;;;;;5064149;28;20235;-52
2023/03/23 03:22:41;;;;;;;3.00;2.20;;;;;;;;;;5065202;28;20238;-52
2023/03/23 03:25:09;;;;;;;2.20;2.00;;;;;;;;;;5065820;28;20247;-51
2023/03/23 03:27:36;;;;;;;2.10;1.90;;;;;;;;;;5064083;28;20254;-51
2023/03/23 03:30:05;;;;;;;2.83;1.70;;;;;;;;;;5067438;28;20243;-51
2023/03/23 03:32:36;;;;;;;1.80;1.70;;;;;;;;;;5062688;28;20238;-51
2023/03/23 03:35:03;;;;;;;2.17;1.97;;;;;;;;;;5064223;28;20250;-51
2023/03/23 03:37:34;;;;;;;5.33;2.00;;;;;;;;;;5065940;28;20255;-51
2023/03/23 03:40:03;;;;;;;2.10;1.90;;;;;;;;;;5059353;28;20239;-51
2023/03/23 03:42:29;;;;;;;2.57;2.37;;;;;;;;;;5064079;28;20475;-51
2023/03/23 03:44:56;;;;;;;2.27;2.07;;;;;;;;;;5063141;28;20860;-53
2023/03/23 03:47:22;;;;;;;2.40;2.20;;;;;;;;;;5065626;28;20227;-51
2023/03/23 03:49:49;;;;;;;2.17;1.97;;;;;;;;;;5064920;28;20296;-51
2023/03/23 03:52:15;;;;;;;1.97;1.83;;;;;;;;;;5064440;28;20223;-53
2023/03/23 03:54:42;;;;;;;2.20;2.00;;;;;;;;;;5065425;28;20226;-50
2023/03/23 03:57:11;;;;;;;4.80;2.10;;;;;;;;;;5062865;28;20227;-51
2023/03/23 03:59:38;;;;;;;4.10;2.47;;;;;;;;;;5063097;28;20553;-52
2023/03/23 04:02:04;;;;;;;3.70;2.30;;;;;;;;;;5062967;28;20239;-51
2023/03/23 04:04:31;;;;;;;3.80;2.17;;;;;;;;;;5063678;28;20231;-51
2023/03/23 04:06:58;;;;;;;4.10;2.00;;;;;;;;;;5063965;28;20243;-53
2023/03/23 04:09:26;;;;;;;2.23;2.00;;;;;;;;;;5064833;28;20255;-52
2023/03/23 04:11:53;;;;;;;2.30;2.10;;;;;;;;;;5064421;28;20239;-52
2023/03/23 04:14:21;;;;;;;2.50;1.70;;;;;;;;;;5062567;28;20692;-52
2023/03/23 04:16:56;;;;;;;2.40;2.20;;;;;;;;;;5066048;28;20233;-51
2023/03/23 04:19:23;;;;;;;4.23;3.20;;;;;;;;;;5062105;28;20227;-52
2023/03/23 04:21:49;;;;;;;2.50;2.00;;;;;;;;;;5059961;28;22278;-52
2023/03/23 04:24:16;;;;;;;3.90;2.07;;;;;;;;;;5064383;28;20227;-52
2023/03/23 04:26:44;;;;;;;2.63;2.30;;;;;;;;;;5064636;28;20290;-54
2023/03/23 04:29:12;;;;;;;5.23;1.57;;;;;;;;;;5063892;28;20314;-52
2023/03/23 04:31:44;;;;;;;2.00;1.77;;;;;;;;;;5064011;28;20227;-52
2023/03/23 04:34:14;;;;;;;2.70;2.00;;;;;;;;;;5063535;28;20249;-51
2023/03/23 04:36:41;;;;;;;1.83;1.73;;;;;;;;;;5058447;28;20226;-52
2023/03/23 04:39:09;;;;;;;3.03;2.13;;;;;;;;;;5064751;28;20310;-53
2023/03/23 04:41:36;;;;;;;2.80;1.80;;;;;;;;;;5068015;28;20241;-51
2023/03/23 04:44:04;;;;;;;1.97;1.87;;;;;;;;;;5065890;28;20242;-51
2023/03/23 04:46:31;;;;;;;3.10;2.30;;;;;;;;;;5064404;28;20231;-52
2023/03/23 04:48:59;;;;;;;2.03;1.80;;;;;;;;;;5061413;28;20255;-50
2023/03/23 04:51:26;;;;;;;2.27;2.07;;;;;;;;;;5070009;28;20231;-50
2023/03/23 04:53:53;;;;;;;3.67;2.20;;;;;;;;;;5059852;28;20248;-51
2023/03/23 04:56:20;;;;;;;3.07;2.33;;;;;;;;;;5063250;28;20231;-52
2023/03/23 04:58:46;;;;;;;3.10;2.30;;;;;;;;;;5062503;28;20227;-52
2023/03/23 05:01:14;;;;;;;2.47;2.23;;;;;;;;;;5064537;28;20281;-52
2023/03/23 05:03:41;;;;;;;2.50;2.30;;;;;;;;;;5057704;28;20250;-51
2023/03/23 05:06:09;;;;;;;3.10;2.17;;;;;;;;;;5064815;28;20249;-53
2023/03/23 05:08:38;;;;;;;2.47;2.27;;;;;;;;;;5061477;28;20243;-51
2023/03/23 05:11:05;;;;;;;2.33;2.07;;;;;;;;;;5067819;28;20684;-52
2023/03/23 05:13:32;;;;;;;3.33;2.30;;;;;;;;;;5066694;28;20314;-51
2023/03/23 05:15:59;;;;;;;3.77;2.40;;;;;;;;;;5065686;28;20238;-50
2023/03/23 05:18:26;;;;;;;2.97;2.33;;;;;;;;;;5058260;28;20235;-50
2023/03/23 05:20:53;;;;;;;3.53;2.57;;;;;;;;;;5063177;28;20235;-51
2023/03/23 05:23:24;;;;;;;4.40;2.60;;;;;;;;;;5059738;28;20304;-51
2023/03/23 05:25:53;;;;;;;3.83;1.93;;;;;;;;;;5056670;28;20292;-51
2023/03/23 05:28:21;;;;;;;4.80;2.83;;;;;;;;;;5059687;28;20326;-52
2023/03/23 05:30:48;;;;;;;2.60;2.40;;;;;;;;;;5062942;28;20235;-53
2023/03/23 05:33:15;;;;;;;5.63;2.73;;;;;;;;;;5055552;28;20753;-51
2023/03/23 05:35:41;;;;;;;2.77;2.57;;;;;;;;;;5066698;28;20349;-52
2023/03/23 05:38:08;;;;;;;2.83;2.63;;;;;;;;;;5064636;28;20223;-52
2023/03/23 05:40:37;;;;;;;6.87;2.67;;;;;;;;;;5067178;28;20293;-52
2023/03/23 05:43:03;;;;;;;2.63;2.43;;;;;;;;;;5064844;28;20246;-51
2023/03/23 05:45:30;;;;;;;3.03;2.63;;;;;;;;;;5064004;28;20258;-52
2023/03/23 05:47:57;;;;;;;3.00;2.70;;;;;;;;;;5065945;28;20235;-52
2023/03/23 05:50:24;;;;;;;4.30;2.43;;;;;;;;;;5063218;28;20259;-54
2023/03/23 05:52:51;;;;;;;3.53;2.10;;;;;;;;;;5063048;28;20732;-56
2023/03/23 05:55:17;;;;;;;3.17;2.53;;;;;;;;;;5060656;28;20238;-57
2023/03/23 05:57:45;;;;;;;3.37;2.87;;;;;;;;;;5059722;28;20257;-61
2023/03/23 06:00:19;;;;;;;3.63;2.80;;;;;;;;;;5059554;28;20238;-60
2023/03/23 06:02:46;;;;;;;4.73;2.83;;;;;;;;;;5062533;28;20227;-62
2023/03/23 06:05:13;;;;;;;3.37;2.87;;;;;;;;;;5063259;28;20231;-60
2023/03/23 06:07:40;;;;;;;2.83;2.53;;;;;;;;;;5062273;28;20234;-57
2023/03/23 06:10:08;;;;;;;4.30;2.70;;;;;;;;;;5059560;28;20254;-56
2023/03/23 06:12:35;;;;;;;4.17;2.90;;;;;;;;;;5065591;28;20267;-59
2023/03/23 06:15:03;;;;;;;3.70;2.43;;;;;;;;;;5057400;28;20757;-54
2023/03/23 06:17:30;;;;;;;4.93;3.43;;;;;;;;;;5064467;28;20338;-53
2023/03/23 06:19:57;;;;;;;4.40;2.77;;;;;;;;;;5061356;28;20223;-55
2023/03/23 06:22:24;;;;;;;3.73;3.30;;;;;;;;;;5063698;28;20285;-52
2023/03/23 06:24:50;;;;;;;3.33;2.67;;;;;;;;;;5064554;28;20282;-53
2023/03/23 06:27:17;;;;;;;3.70;3.00;;;;;;;;;;5065082;28;20314;-54
2023/03/23 06:29:44;;;;;;;5.80;3.33;;;;;;;;;;5064017;28;20231;-54
2023/03/23 06:32:12;;;;;;;2.70;2.50;;;;;;;;;;5064021;28;20277;-54
2023/03/23 06:34:40;;;;;;;4.97;2.80;;;;;;;;;;5063615;28;20676;-52
2023/03/23 06:37:07;;;;;;;4.30;3.30;;;;;;;;;;5065635;28;20705;-53
2023/03/23 06:39:33;;;;;;;2.63;2.43;;;;;;;;;;5061992;28;20235;-53
2023/03/23 06:42:00;;;;;;;3.13;2.70;;;;;;;;;;5061850;28;20243;-53
2023/03/23 06:44:27;;;;;;;4.13;2.70;;;;;;;;;;5060209;28;20306;-53
2023/03/23 06:46:53;;;;;;;5.20;2.87;;;;;;;;;;5066401;28;20236;-54
2023/03/23 06:49:22;;;;;;;6.53;3.10;;;;;;;;;;5065345;28;20234;-53
2023/03/23 06:51:48;;;;;;;4.47;2.33;;;;;;;;;;5066277;28;20721;-53
2023/03/23 06:54:15;;;;;;;4.03;2.33;;;;;;;;;;5061760;28;20278;-53
2023/03/23 06:56:42;;;;;;;7.13;3.13;;;;;;;;;;5070709;28;20307;-53
2023/03/23 06:59:10;;;;;;;5.53;3.50;;;;;;;;;;5067933;27;20227;-54
2023/03/23 07:01:36;;;;;;;4.13;2.93;;;;;;;;;;5065587;28;20237;-52
2023/03/23 07:04:03;;;;;;;5.80;3.37;;;;;;;;;;5066869;28;20313;-51
2023/03/23 07:06:32;;;;;;;5.10;3.40;;;;;;;;;;5069401;28;20314;-56
2023/03/23 07:08:58;;;;;;;4.17;2.80;;;;;;;;;;5069407;28;20257;-53
2023/03/23 07:11:25;;;;;;;4.10;2.67;;;;;;;;;;5067821;28;20693;-53
2023/03/23 07:13:51;;;;;;;5.27;3.10;;;;;;;;;;5063744;28;20785;-53
2023/03/23 07:16:18;;;;;;;4.30;3.00;;;;;;;;;;5069661;28;20313;-54
2023/03/23 07:18:45;;;;;;;4.67;3.00;;;;;;;;;;5068345;28;20327;-55
2023/03/23 07:21:11;;;;;;;5.33;2.97;;;;;;;;;;5071206;28;20315;-54
2023/03/23 07:23:39;;;;;;;3.03;2.57;;;;;;;;;;5070433;28;20506;-54
2023/03/23 07:26:07;;;;;;;5.63;3.97;;;;;;;;;;5068326;28;20258;-53
2023/03/23 07:28:34;;;;;;;6.37;3.57;;;;;;;;;;5067226;28;20235;-54
2023/03/23 07:31:00;;;;;;;4.70;3.00;;;;;;;;;;5067372;28;20235;-55
2023/03/23 07:33:27;;;;;;;3.37;3.07;;;;;;;;;;5063810;28;20864;-55
2023/03/23 07:35:54;;;;;;;6.33;3.43;;;;;;;;;;5069945;28;20235;-55
2023/03/23 07:38:21;;;;;;;6.20;3.10;;;;;;;;;;5064669;28;20234;-57
2023/03/23 07:40:49;;;;;;;5.57;3.60;;;;;;;;;;5070284;28;20254;-56
2023/03/23 07:43:16;;;;;;;4.13;3.73;;;;;;;;;;5065850;28;20226;-56
2023/03/23 07:45:42;;;;;;;6.70;6.03;;;;;;;;;;5065108;28;20663;-57
2023/03/23 07:48:09;;;;;;;3.47;3.17;;;;;;;;;;5065992;28;20867;-58
2023/03/23 07:50:36;;;;;;;3.70;3.27;;;;;;;;;;5063681;28;20242;-57
2023/03/23 07:53:03;;;;;;;4.20;3.37;;;;;;;;;;5065180;28;20261;-57
2023/03/23 07:55:30;;;;;;;3.10;2.83;;;;;;;;;;5068276;28;20230;-58
2023/03/23 07:57:58;;;;;;;6.80;3.50;;;;;;;;;;5067395;28;20281;-61
2023/03/23 08:00:25;;;;;;;5.73;3.10;;;;;;;;;;5071829;28;20230;-61
2023/03/23 08:02:55;;;;;;;3.83;3.23;;;;;;;;;;5063491;28;20239;-60
2023/03/23 08:05:21;;;;;;;4.40;4.00;;;;;;;;;;5061527;28;20232;-61
2023/03/23 08:07:49;;;;;;;5.23;3.60;;;;;;;;;;5068848;28;20242;-63
2023/03/23 08:10:17;;;;;;;5.40;3.37;;;;;;;;;;5064560;28;20219;-63
2023/03/23 08:12:44;;;;;;;5.57;3.10;;;;;;;;;;5068177;28;20712;-67
2023/03/23 08:15:14;;;;;;;3.83;3.20;;;;;;;;;;5067261;28;20243;-61
2023/03/23 08:17:41;;;;;;;3.10;2.90;;;;;;;;;;5068122;28;20235;-58
2023/03/23 08:20:12;;;;;;;3.77;3.33;;;;;;;;;;5049396;28;20250;-57
2023/03/23 08:22:39;;;;;;;4.73;3.43;;;;;;;;;;5065747;28;20231;-55
2023/03/23 08:25:07;;;;;;;3.77;3.27;;;;;;;;;;5066278;28;20246;-60
2023/03/23 08:27:34;;;;;;;4.33;3.07;;;;;;;;;;5068301;28;20726;-54
2023/03/23 08:30:01;;;;;;;5.77;3.27;;;;;;;;;;5068010;28;20228;-54
2023/03/23 08:32:29;;;;;;;7.03;3.73;;;;;;;;;;5068326;28;20266;-53
2023/03/23 08:34:55;;;;;;;6.57;3.77;;;;;;;;;;5065649;28;20235;-53
2023/03/23 08:37:22;;;;;;;4.00;3.60;;;;;;;;;;5063902;28;20785;-57
2023/03/23 08:39:51;;;;;;;4.17;3.23;;;;;;;;;;5066417;28;20239;-52
2023/03/23 08:42:19;;;;;;;3.17;2.87;;;;;;;;;;5060730;28;20262;-52
2023/03/23 08:44:45;;;;;;;7.97;3.27;;;;;;;;;;5065366;28;20223;-52
2023/03/23 08:47:12;;;;;;;3.57;3.23;;;;;;;;;;5063045;28;20234;-52
2023/03/23 08:49:40;;;;;;;4.27;3.20;;;;;;;;;;5063526;28;20235;-53
2023/03/23 08:52:07;;;;;;;3.87;3.07;;;;;;;;;;5062253;28;20314;-53
2023/03/23 08:54:34;;;;;;;3.03;2.67;;;;;;;;;;5063792;28;20239;-52
2023/03/23 08:57:01;;;;;;;2.83;2.40;;;;;;;;;;5064418;28;20227;-52
2023/03/23 08:59:28;;;;;;;4.27;2.73;;;;;;;;;;5058579;28;20718;-52
2023/03/23 09:01:55;;;;;;;2.63;2.43;;;;;;;;;;5056969;28;20267;-52
2023/03/23 09:04:21;;;;;;;3.20;2.63;;;;;;;;;;5064342;28;20247;-52
2023/03/23 09:06:50;;;;;;;2.70;2.40;;;;;;;;;;5062529;28;20251;-51
2023/03/23 09:09:16;;;;;;;6.50;2.67;;;;;;;;;;5063063;28;20312;-52
2023/03/23 09:11:43;;;;;;;2.87;2.63;;;;;;;;;;5068318;28;20262;-52
2023/03/23 09:14:09;;;;;;;3.43;2.50;;;;;;;;;;5061948;28;20223;-51
2023/03/23 09:16:36;;;;;;;3.67;2.43;;;;;;;;;;5063096;28;20242;-52
2023/03/23 09:19:03;;;;;;;4.73;3.53;;;;;;;;;;5065280;28;20704;-52
2023/03/23 09:21:30;;;;;;;2.50;2.30;;;;;;;;;;5064320;28;20239;-53
2023/03/23 09:23:59;;;;;;;2.30;1.97;;;;;;;;;;5062765;28;20235;-53
2023/03/23 09:26:26;;;;;;;3.67;2.03;;;;;;;;;;5067956;28;20292;-53
2023/03/23 09:28:52;;;;;;;2.83;2.00;;;;;;;;;;5069087;28;20233;-56
2023/03/23 09:31:20;;;;;;;2.23;1.90;;;;;;;;;;5068035;28;20231;-51
2023/03/23 09:33:46;;;;;;;2.83;1.77;;;;;;;;;;5061026;28;20226;-51
2023/03/23 09:36:16;;;;;;;2.07;1.73;;;;;;;;;;5065226;28;20744;-52
2023/03/23 09:38:45;;;;;;;6.90;2.17;;;;;;;;;;5051400;28;20235;-51
2023/03/23 09:41:17;;;;;;;3.27;2.10;;;;;;;;;;5062992;28;20227;-53
2023/03/23 09:43:47;;;;;;;3.75;2.47;;;;;;;;;;5061825;28;20395;-60
2023/03/23 09:46:25;;;;;;;3.97;2.58;;;;;;;;;;5061083;28;20245;-53
2023/03/23 09:48:52;;;;;;;2.15;1.70;;;;;;;;;;5056499;28;20227;-51
2023/03/23 09:51:25;;;;;;;2.78;1.85;;;;;;;;;;5058969;28;20243;-52
2023/03/23 09:53:53;;;;;;;1.60;1.50;;;;;;;;;;5055541;28;20231;-52
2023/03/23 09:56:22;;;;;;;3.72;1.77;;;;;;;;;;5061087;28;20240;-54
2023/03/23 09:58:52;;;;;;;2.17;1.80;;;;;;;;;;5059187;28;20922;-52
2023/03/23 10:01:23;;;;;;;2.00;1.80;;;;;;;;;;5061496;28;20238;-54
2023/03/23 10:03:49;;;;;;;10.35;7.28;;;;;;;;;;5063400;28;20231;-52
2023/03/23 10:06:18;;;;;;;2.03;1.52;;;;;;;;;;5059735;28;20227;-53
2023/03/23 10:08:45;;;;;;;7.35;1.77;;;;;;;;;;5054753;28;20234;-53
2023/03/23 10:11:15;;;;;;;2.45;1.52;;;;;;;;;;5061305;28;20250;-55
2023/03/23 10:13:53;;;;;;;5.25;1.75;;;;;;;;;;5056293;28;20643;-52
2023/03/23 10:16:21;;;;;;;2.50;1.70;;;;;;;;;;5061675;28;20233;-51
2023/03/23 10:18:51;;;;;;;2.30;1.67;;;;;;;;;;5061376;28;20227;-52
2023/03/23 10:21:19;;;;;;;1.88;1.60;;;;;;;;;;5061662;28;20222;-51
2023/03/23 10:23:50;;;;;;;2.05;1.70;;;;;;;;;;5059579;28;20676;-50
2023/03/23 10:26:22;;;;;;;1.90;1.40;;;;;;;;;;5062440;28;20884;-52
2023/03/23 10:28:52;;;;;;;1.67;1.33;;;;;;;;;;5060435;28;20241;-52
2023/03/23 10:31:20;;;;;;;1.42;1.33;;;;;;;;;;5064706;28;20232;-51
2023/03/23 10:33:48;;;;;;;1.30;1.20;;;;;;;;;;5065576;28;20227;-51
2023/03/23 10:36:16;;;;;;;1.60;1.45;;;;;;;;;;5065951;28;20242;-53
2023/03/23 10:38:45;;;;;;;1.27;1.10;;;;;;;;;;5063745;28;20238;-52
2023/03/23 10:41:12;;;;;;;1.90;1.60;;;;;;;;;;5066379;28;20306;-53
2023/03/23 10:43:39;;;;;;;1.48;1.25;;;;;;;;;;5066889;28;20227;-53
2023/03/23 10:46:13;;;;;;;1.77;1.58;;;;;;;;;;5060728;28;20239;-52
2023/03/23 10:48:39;;;;;;;1.70;1.60;;;;;;;;;;5065372;28;20600;-52
2023/03/23 10:51:09;;;;;;;2.03;1.92;;;;;;;;;;5066480;28;20257;-53
2023/03/23 10:53:37;;;;;;;1.75;1.27;;;;;;;;;;5064370;28;20327;-53
2023/03/23 10:56:04;;;;;;;2.22;1.55;;;;;;;;;;5064269;28;20312;-51
2023/03/23 10:58:32;;;;;;;1.27;1.17;;;;;;;;;;5060490;28;20235;-54
2023/03/23 11:00:59;;;;;;;1.70;1.60;;;;;;;;;;5060793;28;20245;-52
2023/03/23 11:03:29;;;;;;;4.25;1.67;;;;;;;;;;5063791;28;20231;-52
2023/03/23 11:05:57;;;;;;;2.47;1.30;;;;;;;;;;5054007;28;20227;-53
2023/03/23 11:08:26;;;;;;;1.48;1.38;;;;;;;;;;5065350;28;20219;-52
2023/03/23 11:10:53;;;;;;;3.38;1.45;;;;;;;;;;5064237;28;20231;-52
2023/03/23 11:13:21;;;;;;;1.35;1.25;;;;;;;;;;5061896;28;20232;-53
2023/03/23 11:15:48;;;;;;;2.70;1.30;;;;;;;;;;5060110;28;20232;-52
2023/03/23 11:18:21;;;;;;;1.73;1.58;;;;;;;;;;5064550;28;20230;-53
2023/03/23 11:20:51;;;;;;;2.22;1.15;;;;;;;;;;5061091;28;20230;-52
2023/03/23 11:23:21;;;;;;;4.15;3.65;;;;;;;;;;5063935;28;20227;-52
2023/03/23 11:25:53;;;;;;;2.47;1.70;;;;;;;;;;5060654;28;20381;-52
2023/03/23 11:28:19;;;;;;;1.35;1.25;;;;;;;;;;5065485;28;20237;-52
2023/03/23 11:30:46;;;;;;;2.58;1.25;;;;;;;;;;5064134;28;20253;-53
2023/03/23 11:33:15;;;;;;;2.38;1.45;;;;;;;;;;5062749;28;20241;-52
2023/03/23 11:35:44;;;;;;;1.33;1.23;;;;;;;;;;5074394;28;20744;-51
2023/03/23 11:38:17;;;;;;;1.50;1.40;;;;;;;;;;5058685;28;20235;-52
2023/03/23 11:40:47;;;;;;;1.88;1.35;;;;;;;;;;5065355;28;20235;-57
2023/03/23 11:43:14;;;;;;;2.35;1.33;;;;;;;;;;5056543;28;20242;-55
2023/03/23 11:45:47;;;;;;;1.42;1.33;;;;;;;;;;5062551;28;20237;-52
2023/03/23 11:48:16;;;;;;;1.30;1.20;;;;;;;;;;5065580;28;20223;-52
2023/03/23 11:50:48;;;;;;;2.17;1.38;;;;;;;;;;5060838;28;20716;-53
2023/03/23 11:53:18;;;;;;;2.70;1.27;;;;;;;;;;5063596;28;20318;-50
2023/03/23 11:55:55;;;;;;;3.92;1.33;;;;;;;;;;5068787;28;20863;-51
2023/03/23 11:58:22;;;;;;;1.35;1.25;;;;;;;;;;5065396;28;20231;-51
2023/03/23 12:00:51;;;;;;;1.25;1.15;;;;;;;;;;5063495;28;20239;-52
2023/03/23 12:03:33;;;;;;;1.05;1.00;;;;;;;;;;5060748;28;20644;-53
2023/03/23 12:06:02;;;;;;;2.47;1.20;;;;;;;;;;5057976;28;20725;-53
2023/03/23 12:08:43;;;;;;;3.25;1.58;;;;;;;;;;5060292;28;20259;-54
2023/03/23 12:11:13;;;;;;;3.30;1.40;;;;;;;;;;5061098;28;20227;-52
2023/03/23 12:13:52;;;;;;;1.48;1.38;;;;;;;;;;5063770;28;20227;-50
2023/03/23 12:16:21;;;;;;;1.52;1.23;;;;;;;;;;5060808;28;20230;-51
2023/03/23 12:18:52;;;;;;;2.75;1.45;;;;;;;;;;5061551;28;20235;-52
2023/03/23 12:21:23;;;;;;;2.88;1.30;;;;;;;;;;5062111;28;20314;-54
2023/03/23 12:23:54;;;;;;;1.70;1.45;;;;;;;;;;5063935;28;20231;-51
2023/03/23 12:26:22;;;;;;;2.75;1.77;;;;;;;;;;5062038;28;20697;-52
2023/03/23 12:29:00;;;;;;;2.38;1.50;;;;;;;;;;5062323;28;20235;-54
2023/03/23 12:31:29;;;;;;;2.55;1.45;;;;;;;;;;5062315;28;20234;-51
2023/03/23 12:33:59;;;;;;;3.58;1.67;;;;;;;;;;5062660;28;20736;-52
2023/03/23 12:36:33;;;;;;;3.83;1.50;;;;;;;;;;5060972;28;20266;-53
2023/03/23 12:39:14;;;;;;;2.28;1.38;;;;;;;;;;5055160;28;20721;-52
2023/03/23 12:41:43;;;;;;;1.48;1.17;;;;;;;;;;5062324;28;20231;-50
2023/03/23 12:44:12;;;;;;;2.40;2.17;;;;;;;;;;5056786;28;20811;-52
2023/03/23 12:46:44;;;;;;;4.70;2.00;;;;;;;;;;5063777;28;20239;-50
2023/03/23 12:49:13;;;;;;;1.42;1.23;;;;;;;;;;5063583;28;20748;-52
2023/03/23 12:51:43;;;;;;;2.95;2.15;;;;;;;;;;5062138;28;20598;-52
2023/03/23 12:54:14;;;;;;;4.10;1.90;;;;;;;;;;5063972;28;20318;-52
2023/03/23 12:56:46;;;;;;;1.40;1.30;;;;;;;;;;5063278;28;20322;-52
2023/03/23 12:59:14;;;;;;;2.13;1.50;;;;;;;;;;5058154;28;20606;-52
2023/03/23 13:01:43;;;;;;;1.58;1.40;;;;;;;;;;5059440;28;20231;-52
2023/03/23 13:04:20;;;;;;;3.00;1.85;;;;;;;;;;5101332;27;20575;-51
2023/03/23 13:06:48;;;;;;;2.13;1.75;;;;;;;;;;5087510;27;20229;-53
2023/03/23 13:09:17;;;;;;;3.72;1.48;;;;;;;;;;5092355;27;20242;-52
2023/03/23 13:11:44;;;;;;;1.33;1.23;;;;;;;;;;5085423;27;20249;-52
2023/03/23 13:14:16;;;;;;;1.60;1.50;;;;;;;;;;5083415;28;20253;-54
2023/03/23 13:16:46;;;;;;;1.85;1.30;;;;;;;;;;5084667;28;20306;-53
2023/03/23 13:19:17;;;;;;;3.28;1.60;;;;;;;;;;5088247;28;20234;-52
2023/03/23 13:21:49;;;;;;;4.50;1.75;;;;;;;;;;5076914;28;20876;-52
2023/03/23 13:24:18;;;;;;;1.85;1.58;;;;;;;;;;5071959;28;20713;-52
2023/03/23 13:26:47;;;;;;;1.80;1.60;;;;;;;;;;5079095;28;20222;-52
2023/03/23 13:29:14;;;;;;;2.95;1.42;;;;;;;;;;5080472;28;20226;-51
2023/03/23 13:31:42;;;;;;;2.22;1.38;;;;;;;;;;5084264;28;20340;-51
2023/03/23 13:34:13;;;;;;;3.60;1.67;;;;;;;;;;5079439;28;20364;-50
2023/03/23 13:36:40;;;;;;;2.78;1.40;;;;;;;;;;5076867;28;20245;-50
2023/03/23 13:39:19;;;;;;;1.55;1.35;;;;;;;;;;5083280;28;20241;-52
2023/03/23 13:41:49;;;;;;;2.65;1.30;;;;;;;;;;5083750;28;20722;-52
2023/03/23 13:44:19;;;;;;;3.45;1.23;;;;;;;;;;5081201;28;20262;-53
2023/03/23 13:46:56;;;;;;;3.60;1.50;;;;;;;;;;5079713;28;20231;-51
2023/03/23 13:49:25;;;;;;;2.00;1.55;;;;;;;;;;5082375;28;20231;-51
2023/03/23 13:52:02;;;;;;;1.73;1.40;;;;;;;;;;5082317;28;20615;-52
2023/03/23 13:54:40;;;;;;;1.77;1.27;;;;;;;;;;5078128;28;20225;-52
2023/03/23 13:57:21;;;;;;;4.03;1.65;;;;;;;;;;5081087;28;20792;-52
2023/03/23 13:59:48;;;;;;;4.95;1.83;;;;;;;;;;5076583;27;20634;-51
2023/03/23 14:02:33;;;;;;;4.38;1.50;;;;;;;;;;5084432;28;20243;-52
2023/03/23 14:05:09;;;;;;;7.50;1.55;;;;;;;;;;5084426;28;20230;-52
2023/03/23 14:07:51;;;;;;;2.05;1.38;;;;;;;;;;5087570;28;20234;-51
2023/03/23 14:10:19;;;;;;;2.55;1.27;;;;;;;;;;5077450;28;20262;-52
2023/03/23 14:12:45;;;;;;;3.13;1.45;;;;;;;;;;5083807;28;20326;-52
2023/03/23 14:15:12;;;;;;;2.65;1.60;;;;;;;;;;5068783;28;20327;-52
2023/03/23 14:17:42;;;;;;;3.33;2.05;;;;;;;;;;5064148;28;20238;-51
2023/03/23 14:20:18;;;;;;;1.90;1.70;;;;;;;;;;5062508;28;20258;-51
2023/03/23 14:22:44;;;;;;;2.80;1.48;;;;;;;;;;5065517;28;20241;-52
2023/03/23 14:25:12;;;;;;;2.47;1.38;;;;;;;;;;5070023;28;20318;-52
2023/03/23 14:27:41;;;;;;;4.47;1.45;;;;;;;;;;5065490;28;20246;-53
2023/03/23 14:30:09;;;;;;;1.58;1.20;;;;;;;;;;5068854;28;20231;-53
2023/03/23 14:32:35;;;;;;;2.92;1.23;;;;;;;;;;5064487;28;20712;-52
2023/03/23 14:35:07;;;;;;;1.98;1.30;;;;;;;;;;5067030;28;20311;-54
2023/03/23 14:37:35;;;;;;;1.50;1.30;;;;;;;;;;5069646;28;20227;-53
2023/03/23 14:40:04;;;;;;;3.13;1.42;;;;;;;;;;5067126;28;20224;-52
2023/03/23 14:42:32;;;;;;;6.63;2.00;;;;;;;;;;5068382;28;20305;-54
2023/03/23 14:45:01;;;;;;;5.20;1.38;;;;;;;;;;5067901;28;20276;-52
2023/03/23 14:47:30;;;;;;;2.50;1.48;;;;;;;;;;5067306;28;20613;-51
2023/03/23 14:49:57;;;;;;;1.77;1.05;;;;;;;;;;5058917;28;20234;-52
2023/03/23 14:52:25;;;;;;;1.88;1.40;;;;;;;;;;5065740;28;20612;-51